Time,TemperatureF,DewpointF,PressureIn,WindDirection,WindDirectionDegrees,WindSpeedMPH,WindSpeedGustMPH,Humidity,HourlyPrecipIn,Conditions,Clouds,dailyrainin,SolarRadiationWatts/m^2,SoftwareType,DateUTC
2013-05-24 00:03:00,64.0,64.0,-100.00,SSE,152,3.0,5.0,100,0.08,,,0.27,0.000000,,2013-05-24 04:03:00,
2013-05-24 00:12:00,64.0,64.0,-100.00,SSE,152,3.0,5.0,100,0.08,,,0.27,0.000000,,2013-05-24 04:12:00,
2013-05-24 00:33:00,64.0,64.0,-100.00,South,182,4.0,6.0,100,0.00,,,0.27,0.000000,,2013-05-24 04:33:00,
2013-05-24 00:42:00,64.0,64.0,-100.00,South,182,4.0,6.0,100,0.00,,,0.27,0.000000,,2013-05-24 04:42:00,
2013-05-24 00:53:00,64.0,64.0,-100.00,South,182,4.0,6.0,100,0.00,,,0.27,0.000000,,2013-05-24 04:53:00,
2013-05-24 01:02:00,64.0,64.0,-100.00,South,182,4.0,6.0,100,0.00,,,0.27,0.000000,,2013-05-24 05:02:00,
2013-05-24 01:12:00,64.0,64.0,-100.00,South,182,4.0,6.0,100,0.00,,,0.27,0.000000,,2013-05-24 05:12:00,
2013-05-24 01:32:00,63.0,63.0,-100.00,SSW,204,3.0,6.0,100,0.00,,,0.27,0.000000,,2013-05-24 05:32:00,
2013-05-24 01:42:00,63.0,63.0,-100.00,SSW,204,3.0,6.0,100,0.00,,,0.27,0.000000,,2013-05-24 05:42:00,
2013-05-24 01:52:00,63.0,63.0,-100.00,SSW,204,3.0,6.0,100,0.00,,,0.27,0.000000,,2013-05-24 05:52:00,
2013-05-24 02:02:00,63.0,63.0,-100.00,SSW,204,3.0,6.0,100,0.00,,,0.27,0.000000,,2013-05-24 06:02:00,
2013-05-24 02:12:00,63.0,63.0,-100.00,SSW,204,3.0,6.0,100,0.00,,,0.27,0.000000,,2013-05-24 06:12:00,
2013-05-24 02:32:00,63.0,63.0,-100.00,WSW,250,2.0,6.0,100,0.00,,,0.27,0.000000,,2013-05-24 06:32:00,
2013-05-24 02:42:00,63.0,63.0,-100.00,WSW,250,2.0,6.0,100,0.00,,,0.27,0.000000,,2013-05-24 06:42:00,
2013-05-24 02:52:00,63.0,63.0,-100.00,WSW,250,2.0,6.0,100,0.00,,,0.27,0.000000,,2013-05-24 06:52:00,
2013-05-24 03:02:00,63.0,63.0,-100.00,WSW,250,2.0,6.0,100,0.00,,,0.27,0.000000,,2013-05-24 07:02:00,
2013-05-24 03:11:00,63.0,63.0,-100.00,WSW,250,2.0,6.0,100,0.00,,,0.27,0.000000,,2013-05-24 07:11:00,
2013-05-24 03:32:00,63.0,60.0,-100.00,WNW,289,6.0,13.0,90,0.00,,,0.27,0.000000,,2013-05-24 07:32:00,
2013-05-24 03:42:00,63.0,60.0,-100.00,WNW,289,6.0,13.0,90,0.00,,,0.27,0.000000,,2013-05-24 07:42:00,
2013-05-24 03:52:00,63.0,60.0,-100.00,WNW,289,6.0,13.0,90,0.00,,,0.27,0.000000,,2013-05-24 07:52:00,
2013-05-24 04:02:00,63.0,60.0,-100.00,WNW,289,6.0,13.0,90,0.00,,,0.27,0.000000,,2013-05-24 08:02:00,
2013-05-24 04:11:00,63.0,60.0,-100.00,WNW,289,6.0,13.0,90,0.00,,,0.27,0.000000,,2013-05-24 08:11:00,
2013-05-24 04:33:00,63.0,59.0,-100.00,WNW,296,4.0,9.0,88,0.00,,,0.27,0.000000,,2013-05-24 08:33:00,
2013-05-24 04:42:00,63.0,59.0,-100.00,WNW,296,4.0,9.0,88,0.00,,,0.27,0.000000,,2013-05-24 08:42:00,
2013-05-24 04:52:00,63.0,59.0,-100.00,WNW,296,4.0,9.0,88,0.00,,,0.27,0.000000,,2013-05-24 08:52:00,
2013-05-24 05:02:00,63.0,59.0,-100.00,WNW,296,4.0,9.0,88,0.00,,,0.27,0.000000,,2013-05-24 09:02:00,
2013-05-24 05:11:00,63.0,59.0,-100.00,WNW,296,4.0,9.0,88,0.00,,,0.27,0.000000,,2013-05-24 09:11:00,
2013-05-24 05:33:00,62.0,56.0,-100.00,WNW,300,11.0,19.0,82,0.00,,,0.27,0.000000,,2013-05-24 09:33:00,
2013-05-24 05:42:00,62.0,56.0,-100.00,WNW,300,11.0,19.0,82,0.00,,,0.27,0.000000,,2013-05-24 09:42:00,
2013-05-24 05:53:00,62.0,56.0,-100.00,WNW,300,11.0,19.0,82,0.00,,,0.27,0.000000,,2013-05-24 09:53:00,
2013-05-24 06:03:00,62.0,56.0,-100.00,WNW,300,11.0,19.0,82,0.00,,,0.27,0.000000,,2013-05-24 10:03:00,
2013-05-24 06:12:00,62.0,56.0,-100.00,WNW,300,11.0,19.0,82,0.00,,,0.27,0.000000,,2013-05-24 10:12:00,
2013-05-24 06:33:00,56.0,49.0,-100.00,WNW,296,12.0,21.0,77,0.00,,,0.27,1.000000,,2013-05-24 10:33:00,
2013-05-24 06:42:00,56.0,49.0,-100.00,WNW,296,12.0,21.0,77,0.00,,,0.27,1.000000,,2013-05-24 10:42:00,
2013-05-24 06:53:00,56.0,49.0,-100.00,WNW,296,12.0,21.0,77,0.00,,,0.27,1.000000,,2013-05-24 10:53:00,
2013-05-24 07:02:00,56.0,49.0,-100.00,WNW,296,12.0,21.0,77,0.00,,,0.27,1.000000,,2013-05-24 11:02:00,
2013-05-24 07:12:00,56.0,49.0,-100.00,WNW,296,12.0,21.0,77,0.00,,,0.27,1.000000,,2013-05-24 11:12:00,
2013-05-24 07:32:00,54.0,45.0,-100.00,NW,304,9.0,23.0,71,0.00,,,0.27,19.000000,,2013-05-24 11:32:00,
2013-05-24 07:42:00,54.0,45.0,-100.00,NW,304,9.0,23.0,71,0.00,,,0.27,19.000000,,2013-05-24 11:42:00,
2013-05-24 07:52:00,54.0,45.0,-100.00,NW,304,9.0,23.0,71,0.00,,,0.27,19.000000,,2013-05-24 11:52:00,
2013-05-24 08:02:00,54.0,45.0,-100.00,NW,304,9.0,23.0,71,0.00,,,0.27,19.000000,,2013-05-24 12:02:00,
2013-05-24 08:11:00,54.0,45.0,-100.00,NW,304,9.0,23.0,71,0.00,,,0.27,19.000000,,2013-05-24 12:11:00,
2013-05-24 08:33:00,53.0,46.0,-100.00,NW,319,8.0,17.0,78,0.00,,,0.27,69.000000,,2013-05-24 12:33:00,
2013-05-24 08:42:00,53.0,46.0,-100.00,NW,319,8.0,17.0,78,0.00,,,0.27,69.000000,,2013-05-24 12:42:00,
2013-05-24 08:52:00,53.0,46.0,-100.00,NW,319,8.0,17.0,78,0.00,,,0.27,69.000000,,2013-05-24 12:52:00,
2013-05-24 09:02:00,53.0,46.0,-100.00,NW,319,8.0,17.0,78,0.00,,,0.27,69.000000,,2013-05-24 13:02:00,
2013-05-24 09:11:00,53.0,46.0,-100.00,NW,319,8.0,17.0,78,0.00,,,0.27,69.000000,,2013-05-24 13:11:00,
2013-05-24 09:32:00,53.0,44.0,-100.00,NW,311,9.0,22.0,72,0.00,,,0.27,110.000000,,2013-05-24 13:32:00,
2013-05-24 09:42:00,53.0,44.0,-100.00,NW,311,9.0,22.0,72,0.00,,,0.27,110.000000,,2013-05-24 13:42:00,
2013-05-24 09:52:00,53.0,44.0,-100.00,NW,311,9.0,22.0,72,0.00,,,0.27,110.000000,,2013-05-24 13:52:00,
2013-05-24 10:02:00,53.0,44.0,-100.00,NW,311,9.0,22.0,72,0.00,,,0.27,110.000000,,2013-05-24 14:02:00,
2013-05-24 10:11:00,53.0,44.0,-100.00,NW,311,9.0,22.0,72,0.00,,,0.27,110.000000,,2013-05-24 14:11:00,
2013-05-24 10:32:00,51.0,40.0,-100.00,NW,321,13.0,23.0,66,0.00,,,0.27,169.000000,,2013-05-24 14:32:00,
2013-05-24 10:42:00,51.0,40.0,-100.00,NW,321,13.0,23.0,66,0.00,,,0.27,169.000000,,2013-05-24 14:42:00,
2013-05-24 10:52:00,51.0,40.0,-100.00,NW,321,13.0,23.0,66,0.00,,,0.27,169.000000,,2013-05-24 14:52:00,
2013-05-24 11:02:00,51.0,40.0,-100.00,NW,321,13.0,23.0,66,0.00,,,0.27,169.000000,,2013-05-24 15:02:00,
2013-05-24 11:11:00,51.0,40.0,-100.00,NW,321,13.0,23.0,66,0.00,,,0.27,169.000000,,2013-05-24 15:11:00,
2013-05-24 11:13:00,51.0,40.0,-100.00,NW,316,12.0,27.0,65,0.00,,,0.24,218.000000,,2013-05-24 15:13:00,
2013-05-24 11:33:00,51.0,40.0,-100.00,NW,316,12.0,27.0,65,0.00,,,0.24,218.000000,,2013-05-24 15:33:00,
2013-05-24 11:43:00,51.0,40.0,-100.00,NW,316,12.0,27.0,65,0.00,,,0.24,218.000000,,2013-05-24 15:43:00,
2013-05-24 11:53:00,51.0,40.0,-100.00,NW,316,12.0,27.0,65,0.00,,,0.24,218.000000,,2013-05-24 15:53:00,
2013-05-24 12:03:00,51.0,40.0,-100.00,NW,316,12.0,27.0,65,0.00,,,0.24,218.000000,,2013-05-24 16:03:00,
2013-05-24 12:33:00,53.0,41.0,-100.00,NW,319,13.0,24.0,63,0.00,,,0.23,305.000000,,2013-05-24 16:33:00,
2013-05-24 12:42:00,53.0,41.0,-100.00,NW,319,13.0,24.0,63,0.00,,,0.23,305.000000,,2013-05-24 16:42:00,
2013-05-24 12:52:00,53.0,41.0,-100.00,NW,319,13.0,24.0,63,0.00,,,0.23,305.000000,,2013-05-24 16:52:00,
2013-05-24 13:02:00,53.0,41.0,-100.00,NW,319,13.0,24.0,63,0.00,,,0.23,305.000000,,2013-05-24 17:02:00,
2013-05-24 13:12:00,53.0,41.0,-100.00,NW,319,13.0,24.0,63,0.00,,,0.23,305.000000,,2013-05-24 17:12:00,
2013-05-24 13:32:00,55.0,41.0,-100.00,NW,324,12.0,23.0,59,0.00,,,0.23,503.000000,,2013-05-24 17:32:00,
2013-05-24 13:42:00,55.0,41.0,-100.00,NW,324,12.0,23.0,59,0.00,,,0.23,503.000000,,2013-05-24 17:42:00,
2013-05-24 13:52:00,55.0,41.0,-100.00,NW,324,12.0,23.0,59,0.00,,,0.23,503.000000,,2013-05-24 17:52:00,
2013-05-24 14:01:00,55.0,41.0,-100.00,NW,324,12.0,23.0,59,0.00,,,0.23,503.000000,,2013-05-24 18:01:00,
2013-05-24 14:12:00,55.0,41.0,-100.00,NW,324,12.0,23.0,59,0.00,,,0.23,503.000000,,2013-05-24 18:12:00,
2013-05-24 14:32:00,54.0,39.0,-100.00,NW,317,12.0,24.0,57,0.00,,,0.23,313.000000,,2013-05-24 18:32:00,
2013-05-24 14:42:00,54.0,39.0,-100.00,NW,317,12.0,24.0,57,0.00,,,0.23,313.000000,,2013-05-24 18:42:00,
2013-05-24 14:52:00,54.0,39.0,-100.00,NW,317,12.0,24.0,57,0.00,,,0.23,313.000000,,2013-05-24 18:52:00,
2013-05-24 15:01:00,54.0,39.0,-100.00,NW,317,12.0,24.0,57,0.00,,,0.23,313.000000,,2013-05-24 19:01:00,
2013-05-24 15:11:00,54.0,39.0,-100.00,NW,317,12.0,24.0,57,0.00,,,0.23,313.000000,,2013-05-24 19:11:00,
2013-05-24 15:32:00,56.0,41.0,-100.00,NW,315,12.0,24.0,56,0.00,,,0.23,539.000000,,2013-05-24 19:32:00,
2013-05-24 15:42:00,56.0,41.0,-100.00,NW,315,12.0,24.0,56,0.00,,,0.23,539.000000,,2013-05-24 19:42:00,
2013-05-24 15:52:00,56.0,41.0,-100.00,NW,315,12.0,24.0,56,0.00,,,0.23,539.000000,,2013-05-24 19:52:00,
2013-05-24 16:02:00,56.0,41.0,-100.00,NW,315,12.0,24.0,56,0.00,,,0.23,539.000000,,2013-05-24 20:02:00,
2013-05-24 16:12:00,56.0,41.0,-100.00,NW,315,12.0,24.0,56,0.00,,,0.23,539.000000,,2013-05-24 20:12:00,
2013-05-24 16:32:00,54.0,38.0,-100.00,NW,315,14.0,25.0,55,0.00,,,0.23,348.000000,,2013-05-24 20:32:00,
2013-05-24 16:42:00,54.0,38.0,-100.00,NW,315,14.0,25.0,55,0.00,,,0.23,348.000000,,2013-05-24 20:42:00,
2013-05-24 16:52:00,54.0,38.0,-100.00,NW,315,14.0,25.0,55,0.00,,,0.23,348.000000,,2013-05-24 20:52:00,
2013-05-24 17:01:00,54.0,38.0,-100.00,NW,315,14.0,25.0,55,0.00,,,0.23,348.000000,,2013-05-24 21:01:00,
2013-05-24 17:11:00,54.0,38.0,-100.00,NW,315,14.0,25.0,55,0.00,,,0.23,348.000000,,2013-05-24 21:11:00,
2013-05-24 17:33:00,56.0,37.0,-100.00,NW,316,14.0,28.0,49,0.00,,,0.23,379.000000,,2013-05-24 21:33:00,
2013-05-24 17:43:00,56.0,37.0,-100.00,NW,316,14.0,28.0,49,0.00,,,0.23,379.000000,,2013-05-24 21:43:00,
2013-05-24 17:53:00,56.0,37.0,-100.00,NW,316,14.0,28.0,49,0.00,,,0.23,379.000000,,2013-05-24 21:53:00,
2013-05-24 18:03:00,56.0,37.0,-100.00,NW,316,14.0,28.0,49,0.00,,,0.23,379.000000,,2013-05-24 22:03:00,
2013-05-24 18:12:00,56.0,37.0,-100.00,NW,316,14.0,28.0,49,0.00,,,0.23,379.000000,,2013-05-24 22:12:00,
2013-05-24 18:33:00,54.0,35.0,-100.00,NW,312,13.0,25.0,49,0.00,,,0.21,338.000000,,2013-05-24 22:33:00,
2013-05-24 18:42:00,54.0,35.0,-100.00,NW,312,13.0,25.0,49,0.00,,,0.21,338.000000,,2013-05-24 22:42:00,
2013-05-24 18:52:00,54.0,35.0,-100.00,NW,312,13.0,25.0,49,0.00,,,0.21,338.000000,,2013-05-24 22:52:00,
2013-05-24 19:02:00,54.0,35.0,-100.00,NW,312,13.0,25.0,49,0.00,,,0.21,338.000000,,2013-05-24 23:02:00,
2013-05-24 19:11:00,54.0,35.0,-100.00,NW,312,13.0,25.0,49,0.00,,,0.21,338.000000,,2013-05-24 23:11:00,
2013-05-24 19:32:00,54.0,34.0,-100.00,NW,317,11.0,27.0,46,0.00,,,0.21,261.000000,,2013-05-24 23:32:00,
2013-05-24 19:42:00,54.0,34.0,-100.00,NW,317,11.0,27.0,46,0.00,,,0.21,261.000000,,2013-05-24 23:42:00,
2013-05-24 19:52:00,54.0,34.0,-100.00,NW,317,11.0,27.0,46,0.00,,,0.21,261.000000,,2013-05-24 23:52:00,
2013-05-24 20:01:00,54.0,34.0,-100.00,NW,317,11.0,27.0,46,0.00,,,0.21,261.000000,,2013-05-25 00:01:00,
2013-05-24 20:12:00,54.0,34.0,-100.00,NW,317,11.0,27.0,46,0.00,,,0.21,261.000000,,2013-05-25 00:12:00,
2013-05-24 20:32:00,50.0,32.0,-100.00,NW,325,9.0,23.0,49,0.00,,,0.12,90.000000,,2013-05-25 00:32:00,
2013-05-24 20:42:00,50.0,32.0,-100.00,NW,325,9.0,23.0,49,0.00,,,0.12,90.000000,,2013-05-25 00:42:00,
2013-05-24 20:52:00,50.0,32.0,-100.00,NW,325,9.0,23.0,49,0.00,,,0.12,90.000000,,2013-05-25 00:52:00,
2013-05-24 21:01:00,50.0,32.0,-100.00,NW,325,9.0,23.0,49,0.00,,,0.12,90.000000,,2013-05-25 01:01:00,
2013-05-24 21:11:00,50.0,32.0,-100.00,NW,325,9.0,23.0,49,0.00,,,0.12,90.000000,,2013-05-25 01:11:00,
2013-05-24 21:32:00,48.0,31.0,-100.00,NW,314,10.0,24.0,51,0.00,,,0.10,3.000000,,2013-05-25 01:32:00,
2013-05-24 21:42:00,48.0,31.0,-100.00,NW,314,10.0,24.0,51,0.00,,,0.10,3.000000,,2013-05-25 01:42:00,
2013-05-24 21:52:00,48.0,31.0,-100.00,NW,314,10.0,24.0,51,0.00,,,0.10,3.000000,,2013-05-25 01:52:00,
2013-05-24 22:02:00,48.0,31.0,-100.00,NW,314,10.0,24.0,51,0.00,,,0.10,3.000000,,2013-05-25 02:02:00,
2013-05-24 22:12:00,48.0,31.0,-100.00,NW,314,10.0,24.0,51,0.00,,,0.10,3.000000,,2013-05-25 02:12:00,
2013-05-24 22:32:00,47.0,30.0,-100.00,NW,316,10.0,20.0,51,0.00,,,0.08,0.000000,,2013-05-25 02:32:00,
2013-05-24 22:42:00,47.0,30.0,-100.00,NW,316,10.0,20.0,51,0.00,,,0.08,0.000000,,2013-05-25 02:42:00,
2013-05-24 22:52:00,47.0,30.0,-100.00,NW,316,10.0,20.0,51,0.00,,,0.08,0.000000,,2013-05-25 02:52:00,
2013-05-24 23:02:00,47.0,30.0,-100.00,NW,316,10.0,20.0,51,0.00,,,0.08,0.000000,,2013-05-25 03:02:00,
2013-05-24 23:11:00,47.0,30.0,-100.00,NW,316,10.0,20.0,51,0.00,,,0.08,0.000000,,2013-05-25 03:11:00,
2013-05-24 23:13:00,47.0,31.0,-100.00,NW,324,12.0,19.0,54,0.00,,,0.00,0.000000,,2013-05-25 03:13:00,
2013-05-24 23:33:00,47.0,31.0,-100.00,NW,324,12.0,19.0,54,0.00,,,0.00,0.000000,,2013-05-25 03:33:00,
2013-05-24 23:43:00,47.0,31.0,-100.00,NW,324,12.0,19.0,54,0.00,,,0.00,0.000000,,2013-05-25 03:43:00,
2013-05-24 23:53:00,47.0,31.0,-100.00,NW,324,12.0,19.0,54,0.00,,,0.00,0.000000,,2013-05-25 03:53:00,